Time;durP1;ratioP1;P1;durP2;ratioP2;P2;SDS_P1;SDS_P2;PMS_P1;PMS_P2;Temp;Humidity;BMP_temperature;BMP_pressure;BME280_temperature;BME280_humidity;BME280_pressure;Samples;Min_cycle;Max_cycle;Signal;HPM_P1;HPM_P2
2020/12/08 00:02:05;;;;;;;6.10;4.65;;;17.30;55.10;;;;;;5066528;28;20232;-60
2020/12/08 00:04:31;;;;;;;4.90;4.40;;;17.30;55.10;;;;;;5066317;28;20183;-58
2020/12/08 00:06:56;;;;;;;4.80;4.40;;;17.30;55.10;;;;;;5066486;28;20182;-57
2020/12/08 00:09:22;;;;;;;4.80;4.40;;;17.30;55.10;;;;;;5066507;28;20224;-58
2020/12/08 00:11:48;;;;;;;5.82;4.65;;;17.30;55.10;;;;;;5066255;28;20269;-58
2020/12/08 00:14:14;;;;;;;4.45;4.05;;;17.20;55.00;;;;;;5066176;28;20182;-59
2020/12/08 00:16:40;;;;;;;4.78;4.28;;;17.20;55.00;;;;;;5048325;28;20694;-58
2020/12/08 00:19:06;;;;;;;4.82;4.43;;;17.20;55.00;;;;;;5066206;28;20175;-60
2020/12/08 00:21:31;;;;;;;5.18;4.68;;;17.20;54.90;;;;;;5066151;28;20545;-60
2020/12/08 00:23:57;;;;;;;4.78;4.35;;;17.20;54.90;;;;;;5066360;28;20202;-60
2020/12/08 00:26:23;;;;;;;5.00;4.50;;;17.20;54.90;;;;;;5065972;28;20221;-59
2020/12/08 00:28:48;;;;;;;5.00;4.60;;;17.20;54.90;;;;;;5065628;28;20177;-56
2020/12/08 00:31:14;;;;;;;4.60;4.20;;;17.20;54.80;;;;;;5065945;28;20214;-56
2020/12/08 00:33:40;;;;;;;4.60;4.15;;;17.10;54.70;;;;;;5066029;28;20175;-58
2020/12/08 00:36:05;;;;;;;4.65;4.30;;;17.10;54.60;;;;;;5065811;28;20751;-60
2020/12/08 00:38:31;;;;;;;4.90;4.32;;;17.10;54.70;;;;;;5065802;28;20909;-59
2020/12/08 00:40:56;;;;;;;4.45;4.05;;;17.10;54.70;;;;;;5065895;28;20259;-60
2020/12/08 00:43:22;;;;;;;4.80;4.40;;;17.10;54.70;;;;;;5066046;28;20989;-61
2020/12/08 00:45:48;;;;;;;4.85;4.07;;;17.10;54.60;;;;;;5065634;28;20705;-59
2020/12/08 00:48:13;;;;;;;4.15;3.75;;;17.00;54.50;;;;;;5065703;28;20170;-59
2020/12/08 00:50:39;;;;;;;4.45;4.05;;;17.00;54.50;;;;;;5065617;28;20602;-60
2020/12/08 00:53:04;;;;;;;4.47;4.07;;;17.00;54.60;;;;;;5065601;28;20250;-58
2020/12/08 00:55:30;;;;;;;4.63;4.20;;;17.00;54.50;;;;;;5065413;28;20210;-57
2020/12/08 00:57:55;;;;;;;5.13;4.30;;;17.00;54.50;;;;;;5065485;28;20178;-60
2020/12/08 01:00:21;;;;;;;3.75;3.45;;;17.00;54.50;;;;;;5065409;28;20181;-57
2020/12/08 01:02:47;;;;;;;4.20;3.80;;;17.00;54.50;;;;;;5065283;28;20193;-59
2020/12/08 01:05:13;;;;;;;4.85;4.38;;;16.90;54.30;;;;;;5065653;28;20183;-58
2020/12/08 01:07:39;;;;;;;5.25;4.20;;;17.00;54.50;;;;;;5065306;28;20625;-57
2020/12/08 01:10:05;;;;;;;4.00;3.60;;;16.90;54.40;;;;;;5065223;28;20202;-60
2020/12/08 01:12:30;;;;;;;4.75;4.18;;;16.90;54.40;;;;;;5047573;28;20596;-60
2020/12/08 01:14:56;;;;;;;4.00;3.70;;;16.90;54.30;;;;;;5065455;28;20181;-60
2020/12/08 01:17:21;;;;;;;4.15;3.75;;;16.90;54.30;;;;;;5065360;28;20615;-60
2020/12/08 01:19:47;;;;;;;4.05;3.75;;;16.90;54.30;;;;;;5065636;28;20189;-61
2020/12/08 01:22:12;;;;;;;4.03;3.72;;;16.90;54.40;;;;;;5064461;28;20223;-61
2020/12/08 01:24:38;;;;;;;4.10;3.78;;;16.90;54.30;;;;;;5064771;28;20284;-58
2020/12/08 01:27:03;;;;;;;4.32;4.00;;;16.90;54.30;;;;;;5065400;28;20170;-61
2020/12/08 01:29:29;;;;;;;4.40;3.97;;;16.80;54.20;;;;;;5065061;28;20202;-60
2020/12/08 01:31:54;;;;;;;4.18;3.75;;;16.90;54.40;;;;;;5065302;28;20212;-59
2020/12/08 01:34:20;;;;;;;4.00;3.70;;;16.80;54.20;;;;;;5065380;28;20174;-58
2020/12/08 01:36:46;;;;;;;4.05;3.72;;;16.90;54.20;;;;;;5065276;28;20567;-60
2020/12/08 01:39:11;;;;;;;3.85;3.55;;;16.80;54.10;;;;;;5065222;28;20649;-60
2020/12/08 01:41:37;;;;;;;3.97;3.67;;;16.80;54.20;;;;;;5065252;28;20278;-60
2020/12/08 01:44:02;;;;;;;3.70;3.40;;;16.80;54.10;;;;;;5064817;28;20186;-58
2020/12/08 01:46:28;;;;;;;4.80;4.00;;;16.80;54.20;;;;;;5064914;28;20186;-60
2020/12/08 01:48:54;;;;;;;4.05;3.65;;;16.80;54.10;;;;;;5064734;28;20986;-60
2020/12/08 01:51:20;;;;;;;4.03;3.67;;;16.80;54.00;;;;;;5064814;28;20210;-59
2020/12/08 01:53:46;;;;;;;4.10;3.80;;;16.70;54.10;;;;;;5064787;28;20171;-59
2020/12/08 01:56:12;;;;;;;4.10;3.78;;;16.70;54.10;;;;;;5064833;28;20174;-60
2020/12/08 01:58:38;;;;;;;3.72;3.42;;;16.70;54.00;;;;;;5064590;28;20684;-59
2020/12/08 02:01:04;;;;;;;3.65;3.35;;;16.70;53.90;;;;;;5064856;28;20990;-59
2020/12/08 02:03:30;;;;;;;3.28;3.08;;;16.70;53.90;;;;;;5064778;28;20166;-56
2020/12/08 02:05:55;;;;;;;4.72;3.47;;;16.70;53.90;;;;;;5046788;28;20189;-59
2020/12/08 02:08:31;;;;;;;3.58;3.28;;;16.70;53.80;;;;;;5064955;28;20497;-58
2020/12/08 02:10:56;;;;;;;3.65;3.35;;;16.70;53.80;;;;;;5064968;28;20209;-58
2020/12/08 02:13:22;;;;;;;3.70;3.47;;;16.70;53.80;;;;;;5064624;28;20652;-59
2020/12/08 02:15:48;;;;;;;3.67;3.38;;;16.60;53.80;;;;;;5064667;28;20716;-60
2020/12/08 02:18:13;;;;;;;3.92;3.53;;;16.70;53.80;;;;;;5064829;28;20632;-58
2020/12/08 02:20:42;;;;;;;3.30;3.10;;;16.80;53.90;;;;;;5065052;28;20691;-59
2020/12/08 02:23:08;;;;;;;3.80;3.50;;;16.60;53.70;;;;;;5064758;28;20198;-60
2020/12/08 02:25:34;;;;;;;3.85;3.55;;;16.60;53.70;;;;;;5064621;28;20186;-59
2020/12/08 02:27:59;;;;;;;3.50;3.20;;;16.60;53.70;;;;;;5064676;28;20240;-59
2020/12/08 02:30:25;;;;;;;3.90;3.60;;;16.60;53.60;;;;;;5046829;28;20221;-59
2020/12/08 02:32:51;;;;;;;4.00;3.70;;;16.60;53.70;;;;;;5065038;28;20185;-58
2020/12/08 02:35:16;;;;;;;4.30;3.45;;;16.60;53.60;;;;;;5068069;28;20202;-56
2020/12/08 02:37:42;;;;;;;3.35;3.15;;;16.60;53.60;;;;;;5068210;28;20186;-60
2020/12/08 02:40:07;;;;;;;3.65;3.35;;;16.50;53.60;;;;;;5068183;28;20522;-60
2020/12/08 02:42:33;;;;;;;3.75;3.40;;;16.60;53.50;;;;;;5068379;28;20270;-59
2020/12/08 02:44:59;;;;;;;3.83;3.53;;;16.50;53.60;;;;;;5068046;28;20217;-58
2020/12/08 02:47:24;;;;;;;4.00;3.70;;;16.50;53.50;;;;;;5067997;28;20328;-59
2020/12/08 02:49:50;;;;;;;3.60;3.30;;;16.50;53.50;;;;;;5067871;28;20214;-57
2020/12/08 02:52:16;;;;;;;3.40;3.10;;;16.50;53.50;;;;;;5068009;28;20193;-60
2020/12/08 02:54:41;;;;;;;3.80;3.50;;;16.50;53.50;;;;;;5067960;28;20179;-57
2020/12/08 02:57:07;;;;;;;3.75;3.45;;;16.50;53.50;;;;;;5067876;28;20709;-59
2020/12/08 02:59:33;;;;;;;3.28;2.92;;;16.50;53.50;;;;;;5067751;28;20656;-57
2020/12/08 03:01:59;;;;;;;3.53;3.10;;;16.50;53.40;;;;;;5067409;28;20182;-58
2020/12/08 03:04:24;;;;;;;3.50;3.20;;;16.40;53.30;;;;;;5067432;28;20235;-56
2020/12/08 03:06:50;;;;;;;3.70;3.40;;;16.50;53.40;;;;;;5067572;28;20254;-57
2020/12/08 03:09:16;;;;;;;3.70;3.35;;;16.40;53.30;;;;;;5067651;28;20174;-56
2020/12/08 03:11:41;;;;;;;3.83;3.40;;;16.40;53.30;;;;;;5067378;28;20178;-60
2020/12/08 03:14:07;;;;;;;3.50;3.20;;;16.40;53.30;;;;;;5067625;28;20177;-56
2020/12/08 03:16:36;;;;;;;3.08;2.88;;;16.40;53.40;;;;;;5067314;28;20178;-60
2020/12/08 03:19:02;;;;;;;3.42;3.22;;;16.40;53.30;;;;;;5066943;28;20182;-60
2020/12/08 03:21:31;;;;;;;3.28;3.05;;;16.40;53.30;;;;;;5067361;28;20628;-58
2020/12/08 03:23:57;;;;;;;4.45;3.80;;;16.40;53.30;;;;;;5067266;28;20313;-59
2020/12/08 03:26:22;;;;;;;3.40;3.20;;;16.30;53.20;;;;;;5067214;28;20972;-59
2020/12/08 03:28:48;;;;;;;3.50;3.20;;;16.30;53.30;;;;;;5067134;28;20598;-59
2020/12/08 03:31:14;;;;;;;3.65;3.30;;;16.30;53.20;;;;;;5066962;28;20259;-59
2020/12/08 03:33:40;;;;;;;4.30;3.90;;;16.30;53.20;;;;;;5066721;28;20589;-56
2020/12/08 03:36:10;;;;;;;3.50;3.20;;;16.30;53.20;;;;;;5067135;28;20170;-56
2020/12/08 03:38:36;;;;;;;3.50;3.10;;;16.30;53.20;;;;;;5067067;28;20170;-60
2020/12/08 03:41:02;;;;;;;3.38;3.17;;;16.30;53.20;;;;;;5067365;28;20167;-60
2020/12/08 03:43:27;;;;;;;3.70;3.40;;;16.30;53.10;;;;;;5067092;28;20175;-60
2020/12/08 03:45:53;;;;;;;3.25;2.95;;;16.30;53.10;;;;;;5066089;28;20193;-61
2020/12/08 03:48:18;;;;;;;3.20;2.95;;;16.30;53.10;;;;;;5067024;28;20180;-58
2020/12/08 03:50:44;;;;;;;3.30;3.08;;;16.30;53.10;;;;;;5066844;28;20260;-57
2020/12/08 03:53:09;;;;;;;3.75;3.45;;;16.30;53.10;;;;;;5066750;28;20185;-59
2020/12/08 03:55:35;;;;;;;4.03;3.63;;;16.20;53.00;;;;;;5066797;28;20658;-54
2020/12/08 03:58:01;;;;;;;4.25;3.85;;;16.20;53.00;;;;;;5066611;28;20546;-58
2020/12/08 04:00:26;;;;;;;4.18;3.78;;;16.20;53.00;;;;;;5066533;28;20536;-59
2020/12/08 04:02:52;;;;;;;4.55;4.05;;;16.20;53.00;;;;;;5066398;28;20275;-58
2020/12/08 04:05:17;;;;;;;3.75;3.45;;;16.20;53.00;;;;;;5066659;28;20181;-56
2020/12/08 04:07:43;;;;;;;3.70;3.40;;;16.20;52.90;;;;;;5066581;28;20198;-56
2020/12/08 04:10:08;;;;;;;4.13;3.60;;;16.20;52.90;;;;;;5066425;28;20195;-59
2020/12/08 04:12:34;;;;;;;3.60;3.30;;;16.20;53.00;;;;;;5066278;28;20179;-59
2020/12/08 04:14:59;;;;;;;4.05;3.50;;;16.20;53.00;;;;;;5066513;28;20175;-58
2020/12/08 04:17:25;;;;;;;3.45;3.25;;;16.20;52.90;;;;;;5066444;28;20266;-58
2020/12/08 04:19:50;;;;;;;4.03;3.63;;;16.20;52.90;;;;;;5066074;28;20202;-59
2020/12/08 04:22:16;;;;;;;4.05;3.65;;;16.10;52.90;;;;;;5066444;28;20642;-61
2020/12/08 04:24:41;;;;;;;4.03;3.38;;;16.10;52.90;;;;;;5066364;28;20563;-58
2020/12/08 04:27:07;;;;;;;4.55;4.03;;;16.10;52.90;;;;;;5066422;28;20170;-56
2020/12/08 04:29:32;;;;;;;4.40;3.70;;;16.10;52.90;;;;;;5065838;28;20289;-58
2020/12/08 04:31:58;;;;;;;4.03;3.72;;;16.10;52.90;;;;;;5066012;28;20939;-58
2020/12/08 04:34:24;;;;;;;3.90;3.50;;;16.10;52.90;;;;;;5066273;28;20178;-59
2020/12/08 04:36:49;;;;;;;3.97;3.58;;;16.10;52.80;;;;;;5065946;28;20658;-57
2020/12/08 04:39:15;;;;;;;4.25;3.88;;;16.10;52.80;;;;;;5066056;28;20758;-56
2020/12/08 04:41:40;;;;;;;3.85;3.45;;;16.10;52.80;;;;;;5065796;28;20876;-61
2020/12/08 04:44:06;;;;;;;4.10;3.80;;;16.00;52.80;;;;;;5065585;28;21002;-60
2020/12/08 04:46:32;;;;;;;4.07;3.72;;;16.10;52.80;;;;;;5047791;28;20238;-59
2020/12/08 04:48:58;;;;;;;3.88;3.42;;;16.10;52.80;;;;;;5065866;28;20174;-60
2020/12/08 04:51:24;;;;;;;4.00;3.60;;;16.00;52.70;;;;;;5047767;28;20710;-55
2020/12/08 04:53:53;;;;;;;4.18;3.78;;;16.00;52.70;;;;;;5065784;28;20928;-57
2020/12/08 04:56:18;;;;;;;4.30;3.90;;;16.00;52.80;;;;;;5064816;28;20301;-57
2020/12/08 04:58:44;;;;;;;4.18;3.63;;;16.00;52.70;;;;;;5065062;28;20293;-57
2020/12/08 05:01:10;;;;;;;4.28;3.88;;;16.00;52.70;;;;;;5065561;28;20182;-57
2020/12/08 05:03:37;;;;;;;3.55;3.25;;;16.00;52.70;;;;;;5031252;28;20193;-60
2020/12/08 05:06:04;;;;;;;4.97;4.15;;;16.00;52.70;;;;;;5065046;28;21038;-59
2020/12/08 05:08:29;;;;;;;3.92;3.53;;;16.00;52.60;;;;;;5065460;28;20170;-56
2020/12/08 05:10:55;;;;;;;4.60;4.20;;;16.00;52.70;;;;;;5065328;28;20207;-58
2020/12/08 05:13:22;;;;;;;4.28;3.83;;;16.00;52.70;;;;;;5047373;28;20182;-58
2020/12/08 05:16:04;;;;;;;4.30;3.90;;;15.90;52.60;;;;;;5065634;28;20201;-60
2020/12/08 05:18:33;;;;;;;4.55;4.13;;;15.90;52.60;;;;;;5065384;28;20170;-58
2020/12/08 05:21:08;;;;;;;4.18;3.88;;;15.90;52.60;;;;;;5047594;28;20651;-56
2020/12/08 05:23:41;;;;;;;4.55;3.65;;;15.90;52.60;;;;;;5064974;28;20273;-55
2020/12/08 05:26:11;;;;;;;4.80;3.95;;;15.90;52.60;;;;;;5065236;28;20232;-59
2020/12/08 05:28:36;;;;;;;4.30;3.90;;;15.90;52.60;;;;;;5065500;28;20240;-54
2020/12/08 05:31:02;;;;;;;4.68;4.18;;;15.90;52.60;;;;;;5065115;28;20218;-60
2020/12/08 05:33:28;;;;;;;3.83;3.47;;;15.90;52.60;;;;;;5065233;28;20182;-57
2020/12/08 05:35:56;;;;;;;4.60;4.13;;;15.90;52.60;;;;;;5064850;28;20186;-60
2020/12/08 05:38:21;;;;;;;4.22;3.83;;;15.90;52.60;;;;;;5047421;28;20175;-56
2020/12/08 05:40:47;;;;;;;3.85;3.55;;;15.90;52.60;;;;;;5030775;28;20244;-59
2020/12/08 05:43:12;;;;;;;4.15;3.75;;;15.90;52.60;;;;;;5030335;28;20278;-60
2020/12/08 05:45:38;;;;;;;4.78;4.38;;;15.80;52.60;;;;;;5065077;28;20183;-58
2020/12/08 05:48:04;;;;;;;4.72;4.20;;;15.80;52.60;;;;;;5065336;28;20182;-58
2020/12/08 05:50:29;;;;;;;4.57;4.18;;;15.80;52.60;;;;;;5064847;28;20217;-60
2020/12/08 05:52:56;;;;;;;4.93;4.47;;;15.80;52.60;;;;;;5046499;28;20244;-56
2020/12/08 05:55:24;;;;;;;4.57;4.10;;;15.80;52.60;;;;;;5064684;28;20178;-57
2020/12/08 05:57:52;;;;;;;4.78;4.30;;;15.80;52.70;;;;;;5047146;28;20170;-56
2020/12/08 06:00:25;;;;;;;4.05;3.70;;;15.80;52.70;;;;;;5065016;28;20183;-59
2020/12/08 06:02:51;;;;;;;4.40;4.00;;;15.80;52.70;;;;;;5065138;28;20182;-59
2020/12/08 06:05:27;;;;;;;3.92;3.53;;;15.80;52.80;;;;;;5064715;28;20265;-57
2020/12/08 06:07:53;;;;;;;3.45;3.22;;;15.80;53.00;;;;;;5065089;28;20627;-57
2020/12/08 06:10:18;;;;;;;4.15;3.75;;;15.90;53.10;;;;;;5068563;28;20209;-57
2020/12/08 06:12:44;;;;;;;4.47;3.15;;;16.00;53.10;;;;;;5068418;28;20175;-57
2020/12/08 06:15:25;;;;;;;3.90;3.50;;;16.30;53.00;;;;;;5050830;28;20179;-57
2020/12/08 06:17:50;;;;;;;4.10;3.70;;;16.60;52.80;;;;;;5068500;28;20182;-59
2020/12/08 06:20:16;;;;;;;3.47;3.17;;;16.90;52.50;;;;;;5068378;28;20182;-59
2020/12/08 06:22:58;;;;;;;2.90;2.70;;;17.30;51.60;;;;;;5068320;28;20190;-59
2020/12/08 06:25:24;;;;;;;3.25;2.95;;;17.70;51.00;;;;;;5068616;28;20262;-60
2020/12/08 06:27:50;;;;;;;3.05;2.85;;;18.00;50.60;;;;;;5068414;28;20659;-57
2020/12/08 06:30:20;;;;;;;3.17;2.88;;;18.20;50.10;;;;;;5068147;28;20202;-56
2020/12/08 06:32:46;;;;;;;3.15;2.88;;;18.40;49.80;;;;;;5068125;28;20170;-56
2020/12/08 06:35:13;;;;;;;3.20;2.92;;;18.60;49.70;;;;;;5068072;28;20185;-59
2020/12/08 06:37:50;;;;;;;3.22;2.92;;;18.70;49.60;;;;;;5068097;28;20178;-59
2020/12/08 06:40:20;;;;;;;3.00;2.70;;;18.70;49.50;;;;;;5068143;28;20170;-60
2020/12/08 06:42:46;;;;;;;3.40;2.92;;;18.70;49.60;;;;;;5068091;28;20185;-59
2020/12/08 06:45:14;;;;;;;3.38;2.80;;;18.70;49.70;;;;;;5068011;28;20666;-60
2020/12/08 06:47:40;;;;;;;2.70;2.50;;;18.70;49.80;;;;;;5068067;28;20171;-60
2020/12/08 06:50:06;;;;;;;2.67;2.47;;;18.70;49.80;;;;;;5049786;28;20586;-60
2020/12/08 06:52:32;;;;;;;3.28;2.97;;;18.70;50.00;;;;;;5068082;28;20178;-59
2020/12/08 06:54:59;;;;;;;2.90;2.70;;;18.70;50.00;;;;;;5068089;28;20182;-61
2020/12/08 06:57:25;;;;;;;3.05;2.75;;;18.60;50.00;;;;;;5067778;28;20247;-58
2020/12/08 07:00:03;;;;;;;3.35;3.05;;;18.60;50.10;;;;;;5067757;28;20205;-61
2020/12/08 07:02:29;;;;;;;2.42;2.22;;;18.60;50.10;;;;;;5067795;28;20170;-59
2020/12/08 07:04:54;;;;;;;2.67;2.47;;;18.60;50.20;;;;;;5067536;28;20181;-57
2020/12/08 07:07:20;;;;;;;2.63;2.42;;;18.60;50.30;;;;;;5050237;28;20257;-59
2020/12/08 07:09:45;;;;;;;2.80;2.60;;;18.50;50.30;;;;;;5033310;28;20255;-60
2020/12/08 07:12:11;;;;;;;3.05;2.75;;;18.50;50.30;;;;;;5067401;28;20174;-61
2020/12/08 07:14:37;;;;;;;2.80;2.60;;;18.40;50.50;;;;;;5067542;28;20535;-60
2020/12/08 07:17:03;;;;;;;3.42;2.88;;;18.30;50.60;;;;;;5067747;28;20543;-60
2020/12/08 07:19:29;;;;;;;3.22;2.92;;;18.30;50.90;;;;;;5066932;28;20243;-58
2020/12/08 07:22:01;;;;;;;2.83;2.63;;;18.10;51.10;;;;;;5067485;28;20605;-61
2020/12/08 07:24:27;;;;;;;3.08;2.78;;;18.10;51.20;;;;;;5048956;28;20660;-60
2020/12/08 07:26:59;;;;;;;2.45;2.25;;;18.00;51.30;;;;;;5067124;28;20171;-60
2020/12/08 07:29:25;;;;;;;2.80;2.60;;;18.00;51.40;;;;;;5067221;28;20257;-55
2020/12/08 07:31:50;;;;;;;3.60;2.47;;;18.00;51.40;;;;;;5067075;28;20249;-60
2020/12/08 07:34:16;;;;;;;2.60;2.40;;;18.00;51.40;;;;;;5067107;28;20254;-59
2020/12/08 07:36:41;;;;;;;2.88;2.55;;;18.00;51.40;;;;;;5067274;28;20175;-60
2020/12/08 07:39:15;;;;;;;2.72;2.50;;;18.00;51.30;;;;;;5067143;28;20175;-60
2020/12/08 07:41:41;;;;;;;2.58;2.38;;;18.10;51.40;;;;;;5066804;28;20162;-60
2020/12/08 07:44:10;;;;;;;3.13;2.83;;;18.10;51.30;;;;;;5066616;28;20643;-62
2020/12/08 07:46:36;;;;;;;3.35;2.67;;;18.10;51.30;;;;;;5066888;28;20448;-61
2020/12/08 07:49:03;;;;;;;2.25;2.10;;;18.10;51.30;;;;;;5066936;28;20659;-60
2020/12/08 07:51:29;;;;;;;2.75;2.53;;;18.20;51.30;;;;;;5049228;28;20940;-59
2020/12/08 07:53:55;;;;;;;2.72;2.53;;;18.20;51.20;;;;;;5066700;28;20178;-58
2020/12/08 07:56:30;;;;;;;2.72;2.50;;;18.10;51.20;;;;;;5066606;28;20969;-61
2020/12/08 07:58:56;;;;;;;2.83;2.63;;;18.10;51.30;;;;;;5067078;28;20174;-61
2020/12/08 08:01:21;;;;;;;2.38;2.17;;;18.00;51.40;;;;;;5067115;28;20181;-59
2020/12/08 08:03:47;;;;;;;2.92;2.60;;;17.90;51.60;;;;;;5066633;28;20214;-60
2020/12/08 08:06:17;;;;;;;3.05;2.75;;;17.80;51.70;;;;;;5066553;28;20194;-60
2020/12/08 08:08:46;;;;;;;2.88;2.20;;;17.80;51.80;;;;;;5066474;28;20186;-60
2020/12/08 08:11:12;;;;;;;2.67;2.47;;;17.70;51.90;;;;;;5066251;28;20256;-58
2020/12/08 08:13:37;;;;;;;3.67;2.60;;;17.70;52.10;;;;;;5066488;28;20189;-60
2020/12/08 08:16:03;;;;;;;2.58;2.38;;;17.60;52.10;;;;;;5066251;28;20174;-58
2020/12/08 08:18:31;;;;;;;2.90;2.70;;;17.60;52.10;;;;;;5066374;28;20210;-59
2020/12/08 08:20:58;;;;;;;2.72;2.53;;;17.70;52.20;;;;;;5066198;28;20174;-59
2020/12/08 08:23:23;;;;;;;2.85;2.60;;;17.70;52.10;;;;;;5066238;28;20229;-59
2020/12/08 08:25:49;;;;;;;2.30;2.20;;;17.70;51.90;;;;;;5065949;28;20590;-60
2020/12/08 08:28:14;;;;;;;2.40;2.20;;;17.80;51.90;;;;;;5066263;28;20248;-60
2020/12/08 08:30:40;;;;;;;2.92;2.72;;;17.80;51.80;;;;;;5066166;28;20214;-61
2020/12/08 08:33:05;;;;;;;2.58;2.38;;;17.80;51.70;;;;;;5066426;28;20182;-65
2020/12/08 08:35:31;;;;;;;2.95;2.65;;;17.80;51.90;;;;;;5065916;28;20216;-64
2020/12/08 08:37:58;;;;;;;2.00;1.90;;;17.90;51.80;;;;;;5066116;28;20632;-64
2020/12/08 08:40:24;;;;;;;3.30;2.63;;;18.00;51.80;;;;;;5066025;28;20167;-61
2020/12/08 08:42:49;;;;;;;3.65;2.83;;;18.00;51.80;;;;;;5066234;28;20178;-60
2020/12/08 08:45:15;;;;;;;3.25;2.50;;;18.00;52.20;;;;;;5066031;28;20185;-61
2020/12/08 08:47:41;;;;;;;3.55;3.25;;;18.00;53.20;;;;;;5066085;28;20186;-62
2020/12/08 08:50:06;;;;;;;3.63;2.50;;;17.80;53.50;;;;;;5065636;28;20210;-62
2020/12/08 08:52:33;;;;;;;4.25;2.83;;;17.70;53.90;;;;;;5065612;28;20174;-60
2020/12/08 08:54:58;;;;;;;4.55;2.70;;;17.70;54.10;;;;;;5065234;28;20190;-61
2020/12/08 08:57:24;;;;;;;3.38;2.55;;;17.60;54.00;;;;;;5065562;28;20175;-56
2020/12/08 08:59:49;;;;;;;6.18;2.67;;;17.60;54.00;;;;;;5065459;28;20178;-60
2020/12/08 09:02:15;;;;;;;4.45;3.15;;;17.60;54.20;;;;;;5065671;28;20182;-60
2020/12/08 09:04:41;;;;;;;5.85;3.33;;;17.60;54.10;;;;;;5065425;28;20831;-60
2020/12/08 09:07:06;;;;;;;2.75;2.55;;;17.60;54.10;;;;;;5065530;28;20178;-60
2020/12/08 09:09:33;;;;;;;4.55;2.70;;;17.70;54.20;;;;;;5065236;28;20183;-59
2020/12/08 09:11:59;;;;;;;4.03;2.92;;;17.70;54.10;;;;;;5064776;28;20714;-61
2020/12/08 09:14:27;;;;;;;3.38;2.90;;;17.70;54.10;;;;;;5065373;28;20261;-62
2020/12/08 09:16:52;;;;;;;2.90;2.70;;;17.70;54.00;;;;;;5065242;28;20354;-60
2020/12/08 09:19:18;;;;;;;3.55;2.70;;;17.70;54.00;;;;;;5065117;28;20936;-60
2020/12/08 09:21:43;;;;;;;2.90;2.40;;;17.60;54.00;;;;;;5065058;28;20193;-61
2020/12/08 09:24:09;;;;;;;2.60;2.40;;;17.60;54.20;;;;;;5047483;28;20194;-61
2020/12/08 09:26:39;;;;;;;3.33;3.03;;;17.60;54.40;;;;;;5065460;28;20332;-59
2020/12/08 09:29:04;;;;;;;5.05;2.78;;;17.50;54.50;;;;;;5065001;28;20182;-59
2020/12/08 09:31:30;;;;;;;5.15;2.80;;;17.50;54.70;;;;;;5064959;28;20291;-60
2020/12/08 09:33:55;;;;;;;4.78;2.85;;;17.50;54.60;;;;;;5047339;28;20277;-59
2020/12/08 09:36:21;;;;;;;4.00;2.58;;;17.50;54.60;;;;;;5065263;28;20174;-61
2020/12/08 09:38:46;;;;;;;3.78;2.80;;;17.50;54.50;;;;;;5064817;28;20238;-59
2020/12/08 09:41:12;;;;;;;2.97;2.75;;;17.50;54.50;;;;;;5064999;28;20723;-60
2020/12/08 09:43:38;;;;;;;2.50;2.30;;;17.50;54.50;;;;;;5064286;28;20202;-59
2020/12/08 09:46:03;;;;;;;3.85;2.50;;;17.50;54.40;;;;;;5064789;28;20231;-61
2020/12/08 09:48:29;;;;;;;3.60;2.47;;;17.60;54.40;;;;;;5064744;28;20170;-61
2020/12/08 09:50:54;;;;;;;3.60;2.80;;;17.70;54.40;;;;;;5064909;28;20255;-61
2020/12/08 09:53:20;;;;;;;2.97;2.28;;;17.70;54.20;;;;;;5064905;28;20642;-59
2020/12/08 09:55:48;;;;;;;4.38;2.60;;;17.70;54.20;;;;;;5065094;28;20531;-59
2020/12/08 09:58:13;;;;;;;3.47;2.63;;;17.70;54.20;;;;;;5047168;28;20170;-60
2020/12/08 10:00:39;;;;;;;2.35;2.10;;;17.60;54.20;;;;;;5064964;28;20179;-61
2020/12/08 10:03:04;;;;;;;2.65;2.45;;;17.60;54.20;;;;;;5064657;28;20193;-60
2020/12/08 10:05:30;;;;;;;3.65;2.40;;;17.60;54.40;;;;;;5065106;28;20254;-57
2020/12/08 10:07:55;;;;;;;3.33;2.55;;;17.50;54.60;;;;;;5064690;28;20252;-61
2020/12/08 10:10:21;;;;;;;2.67;2.40;;;17.50;54.60;;;;;;5064474;28;20221;-60
2020/12/08 10:12:47;;;;;;;2.50;2.30;;;17.50;54.70;;;;;;5047013;28;20178;-59
2020/12/08 10:15:13;;;;;;;2.15;2.00;;;17.50;54.60;;;;;;5064324;28;20532;-60
2020/12/08 10:17:38;;;;;;;2.92;2.67;;;17.50;54.60;;;;;;5064430;28;20175;-59
2020/12/08 10:20:04;;;;;;;3.03;2.75;;;17.50;54.60;;;;;;5064821;28;20226;-61
2020/12/08 10:22:29;;;;;;;3.85;2.72;;;17.60;54.50;;;;;;5064677;28;20548;-59
2020/12/08 10:24:55;;;;;;;2.65;2.45;;;17.60;54.40;;;;;;5064776;28;20170;-61
2020/12/08 10:27:21;;;;;;;3.60;2.38;;;17.70;54.40;;;;;;5064538;28;20166;-62
2020/12/08 10:29:46;;;;;;;3.35;2.65;;;17.70;54.30;;;;;;5064481;28;20609;-60
2020/12/08 10:32:12;;;;;;;2.92;2.63;;;17.70;54.20;;;;;;5064833;28;20197;-64
2020/12/08 10:34:37;;;;;;;4.07;2.67;;;17.80;54.20;;;;;;5063965;28;20183;-63
2020/12/08 10:37:03;;;;;;;3.97;2.60;;;17.70;54.50;;;;;;5064136;28;20170;-63
2020/12/08 10:39:29;;;;;;;2.45;2.17;;;17.70;54.50;;;;;;5063852;28;20175;-63
2020/12/08 10:41:55;;;;;;;2.47;2.20;;;17.80;54.50;;;;;;5063835;28;20182;-62
2020/12/08 10:44:21;;;;;;;2.97;2.22;;;17.70;54.60;;;;;;5063399;28;20588;-62
2020/12/08 10:46:49;;;;;;;2.28;2.13;;;17.70;54.60;;;;;;5063937;28;20232;-63
2020/12/08 10:49:14;;;;;;;2.40;2.20;;;17.70;54.70;;;;;;5063957;28;20635;-64
2020/12/08 10:51:40;;;;;;;2.65;2.30;;;17.70;54.60;;;;;;5045394;28;20214;-63
2020/12/08 10:54:05;;;;;;;2.40;2.20;;;17.70;54.60;;;;;;5063801;28;20224;-63
2020/12/08 10:56:31;;;;;;;2.20;1.90;;;17.80;54.50;;;;;;5063075;28;20197;-63
2020/12/08 10:58:56;;;;;;;2.65;2.20;;;17.90;54.40;;;;;;5040317;28;21000;-63
2020/12/08 11:01:23;;;;;;;2.72;2.50;;;17.90;54.20;;;;;;5055018;28;20333;-62
2020/12/08 11:03:49;;;;;;;2.65;1.95;;;17.90;54.20;;;;;;5029653;28;20175;-63
2020/12/08 11:06:24;;;;;;;2.20;2.00;;;17.90;54.20;;;;;;5030076;28;20178;-63
2020/12/08 11:08:50;;;;;;;2.45;2.08;;;17.90;54.20;;;;;;5067835;28;20196;-63
2020/12/08 11:11:23;;;;;;;2.22;2.03;;;17.90;54.30;;;;;;5067505;28;20297;-63
2020/12/08 11:13:49;;;;;;;2.92;2.00;;;17.80;54.30;;;;;;5067240;28;20194;-63
2020/12/08 11:16:15;;;;;;;2.08;1.98;;;17.70;54.40;;;;;;5067494;28;20206;-63
2020/12/08 11:18:41;;;;;;;4.82;2.17;;;17.70;54.50;;;;;;5067244;28;20227;-63
2020/12/08 11:21:06;;;;;;;2.45;2.17;;;17.70;54.40;;;;;;5067043;28;20200;-62
2020/12/08 11:23:32;;;;;;;2.55;1.92;;;17.70;54.40;;;;;;5067394;28;20661;-63
2020/12/08 11:25:57;;;;;;;2.38;2.00;;;17.80;54.30;;;;;;5049591;28;20541;-63
2020/12/08 11:28:23;;;;;;;2.53;1.85;;;17.90;54.20;;;;;;5067498;28;20678;-63
2020/12/08 11:30:49;;;;;;;2.53;2.33;;;17.90;54.20;;;;;;5058477;28;20574;-64
2020/12/08 11:33:14;;;;;;;2.13;2.00;;;17.90;54.10;;;;;;5047099;28;20175;-63
2020/12/08 11:35:40;;;;;;;2.55;2.35;;;17.80;54.10;;;;;;5047175;28;20182;-63
2020/12/08 11:38:05;;;;;;;2.83;2.55;;;17.80;54.00;;;;;;5047181;28;20586;-61
2020/12/08 11:40:31;;;;;;;4.30;2.10;;;17.80;54.10;;;;;;5047447;28;20207;-62
2020/12/08 11:42:56;;;;;;;2.40;2.20;;;17.80;54.80;;;;;;5047282;28;20179;-61
2020/12/08 11:45:22;;;;;;;2.58;2.38;;;17.70;54.20;;;;;;5046937;28;20236;-62
2020/12/08 11:47:47;;;;;;;4.32;2.25;;;17.70;54.20;;;;;;5047280;28;20655;-61
2020/12/08 11:50:13;;;;;;;4.15;2.40;;;17.80;54.20;;;;;;5046908;28;20207;-63
2020/12/08 11:52:39;;;;;;;4.18;2.40;;;17.80;54.30;;;;;;5047088;28;20887;-62
2020/12/08 11:55:06;;;;;;;3.65;2.30;;;17.90;54.30;;;;;;5046988;28;20244;-63
2020/12/08 11:57:32;;;;;;;2.70;2.17;;;17.90;54.40;;;;;;5046742;28;20198;-62
2020/12/08 11:59:58;;;;;;;2.55;2.33;;;17.90;54.40;;;;;;5029113;28;20183;-62
2020/12/08 12:02:24;;;;;;;3.08;2.00;;;17.80;54.30;;;;;;5046631;28;20178;-63
2020/12/08 12:04:49;;;;;;;3.13;1.92;;;17.80;54.30;;;;;;5053753;28;20970;-63
2020/12/08 12:07:15;;;;;;;2.20;2.00;;;17.80;54.40;;;;;;5066250;28;20810;-62
2020/12/08 12:09:40;;;;;;;2.70;1.90;;;17.80;54.50;;;;;;5066613;28;20179;-63
2020/12/08 12:12:06;;;;;;;3.70;1.85;;;17.70;54.50;;;;;;5066294;28;20243;-63
2020/12/08 12:14:31;;;;;;;3.28;1.98;;;17.70;54.60;;;;;;5048588;28;20175;-62
2020/12/08 12:16:57;;;;;;;2.88;1.65;;;17.80;54.60;;;;;;5066244;28;20178;-61
2020/12/08 12:19:22;;;;;;;2.25;1.95;;;17.80;54.60;;;;;;5065998;28;20210;-64
2020/12/08 12:21:48;;;;;;;4.30;2.13;;;17.80;54.50;;;;;;5066364;28;20194;-63
2020/12/08 12:24:14;;;;;;;2.58;1.60;;;17.80;54.50;;;;;;5066193;28;20650;-60
2020/12/08 12:26:39;;;;;;;2.30;2.10;;;17.80;54.50;;;;;;5065969;28;20575;-62
2020/12/08 12:29:05;;;;;;;4.05;2.28;;;17.70;54.60;;;;;;5066565;28;20171;-65
2020/12/08 12:31:30;;;;;;;6.20;2.30;;;17.70;54.80;;;;;;5065921;28;20221;-64
2020/12/08 12:33:56;;;;;;;3.92;2.08;;;17.70;54.90;;;;;;5065785;28;20178;-66
2020/12/08 12:36:21;;;;;;;2.60;2.10;;;17.70;55.00;;;;;;5065865;28;20247;-62
2020/12/08 12:38:48;;;;;;;3.53;2.13;;;17.70;54.90;;;;;;5066072;28;20185;-64
2020/12/08 12:41:20;;;;;;;3.00;1.73;;;17.70;54.90;;;;;;5048297;28;20166;-62
2020/12/08 12:43:45;;;;;;;1.85;1.75;;;17.70;54.90;;;;;;5065707;28;20843;-63